Time;durP1;ratioP1;P1;durP2;ratioP2;P2;SDS_P1;SDS_P2;PMS_P1;PMS_P2;Temp;Humidity;BMP_temperature;BMP_pressure;BME280_temperature;BME280_humidity;BME280_pressure;Samples;Min_cycle;Max_cycle;Signal;HPM_P1;HPM_P2
2021/06/13 00:00:42;;;;;;;8.93;7.33;;;;;;;20.13;53.88;97345.25;5054381;28;20171;-68
2021/06/13 00:03:08;;;;;;;11.10;7.70;;;;;;;19.85;54.81;97354.31;5045929;28;20203;-69
2021/06/13 00:05:33;;;;;;;10.63;7.80;;;;;;;19.96;54.54;97348.38;5053578;28;20445;-69
2021/06/13 00:07:59;;;;;;;11.10;8.03;;;;;;;20.28;53.59;97350.31;5052897;28;20175;-69
2021/06/13 00:10:24;;;;;;;9.47;6.90;;;;;;;20.31;53.62;97349.91;5037625;28;20195;-68
2021/06/13 00:12:50;;;;;;;12.93;8.20;;;;;;;20.15;54.00;97356.53;5053983;28;20183;-67
2021/06/13 00:15:19;;;;;;;11.43;6.80;;;;;;;20.23;53.72;97357.06;5038824;28;20210;-69
2021/06/13 00:17:45;;;;;;;9.60;7.77;;;;;;;20.10;53.87;97355.28;5053204;28;20179;-68
2021/06/13 00:20:14;;;;;;;7.47;6.70;;;;;;;20.26;53.51;97363.84;5053138;28;20424;-69
2021/06/13 00:22:40;;;;;;;7.87;7.07;;;;;;;20.09;53.94;97361.63;5049690;28;20286;-69
2021/06/13 00:25:06;;;;;;;8.03;7.10;;;;;;;19.98;54.30;97356.97;5052362;28;20544;-67
2021/06/13 00:27:32;;;;;;;9.37;7.50;;;;;;;19.93;54.42;97354.09;5052085;28;20418;-67
2021/06/13 00:29:57;;;;;;;8.60;7.37;;;;;;;19.87;54.63;97349.63;5053173;28;20488;-67
2021/06/13 00:32:23;;;;;;;12.37;8.00;;;;;;;19.94;54.32;97345.94;5052949;28;20530;-69
2021/06/13 00:34:49;;;;;;;7.97;7.17;;;;;;;19.89;54.46;97359.03;5052184;28;20684;-69
2021/06/13 00:37:14;;;;;;;9.57;8.20;;;;;;;19.85;54.96;97356.97;5052232;28;20183;-69
2021/06/13 00:39:40;;;;;;;8.23;7.33;;;;;;;19.99;54.49;97357.78;5052615;28;20190;-68
2021/06/13 00:42:06;;;;;;;11.87;7.50;;;;;;;20.13;54.18;97354.06;5051546;28;20253;-69
2021/06/13 00:44:31;;;;;;;8.90;8.00;;;;;;;19.98;54.42;97362.28;5038752;28;20202;-68
2021/06/13 00:46:57;;;;;;;7.97;7.17;;;;;;;19.90;54.64;97359.88;5051847;28;20194;-67
2021/06/13 00:49:23;;;;;;;17.07;8.07;;;;;;;20.03;54.56;97365.16;5052809;28;20179;-68
2021/06/13 00:51:48;;;;;;;8.60;7.60;;;;;;;20.12;54.15;97356.94;5051070;28;20210;-68
2021/06/13 00:54:14;;;;;;;9.90;7.40;;;;;;;20.14;54.17;97350.38;5051361;28;20198;-68
2021/06/13 00:56:40;;;;;;;11.27;7.23;;;;;;;20.09;54.08;97353.66;5052030;28;20187;-68
2021/06/13 00:59:06;;;;;;;10.47;8.37;;;;;;;20.03;54.38;97359.00;5051382;28;20872;-69
2021/06/13 01:01:32;;;;;;;10.23;7.63;;;;;;;20.06;54.42;97356.72;5052394;28;20199;-68
2021/06/13 01:03:57;;;;;;;11.43;8.20;;;;;;;19.94;54.33;97353.09;5051695;28;20441;-68
2021/06/13 01:06:53;;;;;;;9.20;7.47;;;;;;;20.08;53.80;97364.53;5050987;28;20194;-68
2021/06/13 01:09:23;;;;;;;15.67;7.80;;;;;;;19.84;54.30;97358.81;5050848;28;20194;-68
2021/06/13 01:11:56;;;;;;;8.73;7.73;;;;;;;19.88;54.48;97359.25;5050855;28;20466;-68
2021/06/13 01:14:29;;;;;;;8.43;7.30;;;;;;;19.79;54.71;97359.44;5011094;28;20437;-69
2021/06/13 01:17:02;;;;;;;10.00;7.40;;;;;;;19.70;55.11;97350.03;5051192;28;20426;-67
2021/06/13 01:19:45;;;;;;;11.57;7.57;;;;;;;19.87;54.75;97362.94;5052023;28;20421;-69
2021/06/13 01:22:26;;;;;;;8.00;7.20;;;;;;;19.91;54.43;97362.31;5030843;28;20480;-68
2021/06/13 01:25:07;;;;;;;11.20;7.60;;;;;;;19.73;55.00;97362.94;5051362;28;20452;-68
2021/06/13 01:27:53;;;;;;;9.97;7.80;;;;;;;20.10;53.73;97360.63;5027921;28;20429;-69
2021/06/13 01:30:19;;;;;;;8.33;7.47;;;;;;;19.89;54.39;97360.88;5042749;28;20461;-68
2021/06/13 01:32:45;;;;;;;10.23;7.50;;;;;;;19.93;54.24;97360.25;5049422;28;20505;-68
2021/06/13 01:35:15;;;;;;;9.07;7.73;;;;;;;19.82;54.71;97357.38;5059512;28;20211;-68
2021/06/13 01:37:43;;;;;;;11.57;7.00;;;;;;;19.73;54.47;97349.63;5052696;28;20187;-69
2021/06/13 01:40:10;;;;;;;9.93;7.50;;;;;;;19.56;55.68;97353.75;5051031;28;20999;-68
2021/06/13 01:42:37;;;;;;;12.60;7.80;;;;;;;19.69;55.29;97345.75;5051958;28;20433;-69
2021/06/13 01:45:06;;;;;;;8.70;7.80;;;;;;;19.58;55.47;97349.03;5034845;28;20454;-69
2021/06/13 01:47:34;;;;;;;11.93;7.73;;;;;;;19.44;55.57;97349.06;5050240;28;20437;-67
2021/06/13 01:49:59;;;;;;;9.60;6.80;;;;;;;19.54;55.05;97350.47;5051262;28;21138;-69
2021/06/13 01:52:26;;;;;;;9.23;7.13;;;;;;;19.42;55.50;97345.78;5048632;28;20430;-68
2021/06/13 01:54:55;;;;;;;16.63;8.70;;;;;;;19.64;54.85;97350.88;5049868;28;20580;-68
2021/06/13 01:57:20;;;;;;;13.60;8.00;;;;;;;19.68;54.36;97351.28;5033801;28;20418;-68
2021/06/13 01:59:47;;;;;;;9.73;7.53;;;;;;;19.66;54.36;97354.13;5051600;28;20425;-69
2021/06/13 02:02:13;;;;;;;10.53;8.00;;;;;;;19.58;54.34;97357.00;5051251;28;20191;-68
2021/06/13 02:04:40;;;;;;;10.27;7.70;;;;;;;19.63;54.65;97362.53;5050097;28;20451;-68
2021/06/13 02:07:07;;;;;;;11.40;6.77;;;;;;;19.69;54.20;97352.91;5049884;28;20456;-68
2021/06/13 02:09:33;;;;;;;12.43;7.30;;;;;;;19.82;53.62;97357.38;5050116;28;20468;-68
2021/06/13 02:12:04;;;;;;;12.37;6.73;;;;;;;19.91;53.45;97354.31;5049960;28;20861;-68
2021/06/13 02:14:31;;;;;;;9.97;7.13;;;;;;;19.71;53.70;97354.34;5022083;28;20198;-69
2021/06/13 02:16:58;;;;;;;16.67;7.60;;;;;;;19.80;53.50;97355.75;5051027;28;20425;-68
2021/06/13 02:19:26;;;;;;;10.17;7.40;;;;;;;19.71;53.83;97354.34;5049722;28;20422;-68
2021/06/13 02:21:55;;;;;;;10.33;7.50;;;;;;;19.57;54.19;97352.72;5044631;28;20417;-69
2021/06/13 02:24:26;;;;;;;8.53;6.90;;;;;;;19.48;54.19;97347.63;5050647;28;20839;-68
2021/06/13 02:26:52;;;;;;;11.27;7.47;;;;;;;19.26;55.06;97348.88;5049956;28;20432;-68
2021/06/13 02:29:18;;;;;;;11.83;7.10;;;;;;;19.44;54.27;97343.72;5051142;28;20460;-69
2021/06/13 02:31:45;;;;;;;8.40;7.60;;;;;;;19.26;54.78;97348.88;5049558;28;20956;-71
2021/06/13 02:34:15;;;;;;;10.97;7.13;;;;;;;18.98;55.70;97348.00;5048708;28;20210;-68
2021/06/13 02:36:41;;;;;;;11.67;7.50;;;;;;;19.10;55.18;97348.25;5049590;28;20512;-70
2021/06/13 02:39:07;;;;;;;11.07;7.10;;;;;;;18.87;56.23;97352.06;5049446;28;20513;-69
2021/06/13 02:41:34;;;;;;;8.63;7.53;;;;;;;19.10;55.35;97352.72;5050337;28;20187;-69
2021/06/13 02:44:00;;;;;;;13.80;7.80;;;;;;;19.23;54.87;97360.69;5035886;28;20446;-69
2021/06/13 02:46:25;;;;;;;8.77;7.13;;;;;;;18.87;55.89;97352.06;5050207;28;20421;-69
2021/06/13 02:48:51;;;;;;;9.70;7.50;;;;;;;18.97;55.61;97356.19;5051739;28;20205;-68
2021/06/13 02:51:20;;;;;;;7.70;6.90;;;;;;;18.86;55.62;97357.56;5051212;28;20241;-68
2021/06/13 02:53:47;;;;;;;11.90;7.47;;;;;;;18.78;55.82;97365.72;5049572;28;20659;-67
2021/06/13 02:56:35;;;;;;;10.73;7.60;;;;;;;19.05;54.97;97363.97;5051187;28;20860;-67
2021/06/13 02:59:07;;;;;;;8.03;6.97;;;;;;;19.01;55.14;97376.03;5051031;28;20433;-69
2021/06/13 03:01:33;;;;;;;8.43;6.80;;;;;;;19.04;55.19;97367.63;5049806;28;20826;-68
2021/06/13 03:03:59;;;;;;;7.57;6.80;;;;;;;18.82;55.76;97375.75;5049477;28;20528;-68
2021/06/13 03:06:24;;;;;;;10.27;6.60;;;;;;;18.93;55.29;97371.69;5035517;28;20630;-68
2021/06/13 03:08:50;;;;;;;9.10;7.40;;;;;;;18.77;55.67;97372.88;5053720;28;20421;-69
2021/06/13 03:11:18;;;;;;;11.00;6.60;;;;;;;18.87;55.16;97373.31;5053559;28;20716;-69
2021/06/13 03:13:45;;;;;;;9.07;6.53;;;;;;;18.90;54.98;97372.09;5043671;28;20188;-68
2021/06/13 03:16:12;;;;;;;8.03;6.70;;;;;;;18.72;55.45;97380.63;5070492;28;20425;-69
2021/06/13 03:18:38;;;;;;;10.00;6.20;;;;;;;18.63;55.92;97382.63;5054009;28;20417;-68
2021/06/13 03:21:05;;;;;;;13.30;7.20;;;;;;;18.70;55.90;97378.19;5038125;28;20450;-69
2021/06/13 03:23:32;;;;;;;7.53;6.50;;;;;;;18.48;56.39;97382.81;5054594;28;20190;-68
2021/06/13 03:26:01;;;;;;;13.40;7.27;;;;;;;18.45;56.17;97383.19;5046837;28;20471;-67
2021/06/13 03:28:28;;;;;;;10.80;7.20;;;;;;;18.22;57.55;97384.31;5039441;28;20440;-69
2021/06/13 03:30:54;;;;;;;12.20;7.40;;;;;;;18.59;56.33;97386.69;5031721;28;20451;-68
2021/06/13 03:33:20;;;;;;;7.73;6.93;;;;;;;18.49;56.94;97391.56;5035677;28;20445;-69
2021/06/13 03:35:47;;;;;;;9.20;6.87;;;;;;;18.50;56.45;97387.91;5054428;28;20199;-69
2021/06/13 03:38:13;;;;;;;10.57;6.43;;;;;;;18.23;57.49;97398.38;5054069;28;20417;-68
2021/06/13 03:40:39;;;;;;;8.10;6.80;;;;;;;18.21;57.59;97393.28;5053268;28;20429;-69
2021/06/13 03:43:05;;;;;;;7.90;7.03;;;;;;;18.35;57.23;97394.16;5054015;28;20444;-68
2021/06/13 03:45:31;;;;;;;9.67;7.30;;;;;;;18.35;57.14;97388.84;5052805;28;20453;-69
2021/06/13 03:48:01;;;;;;;8.50;6.87;;;;;;;18.38;57.40;97395.63;5052718;28;20772;-68
2021/06/13 03:50:27;;;;;;;8.47;6.47;;;;;;;18.28;57.00;97398.63;5036960;28;20251;-68
2021/06/13 03:52:53;;;;;;;9.40;6.57;;;;;;;18.31;56.27;97400.06;5052424;28;20847;-68
2021/06/13 03:55:18;;;;;;;8.77;6.40;;;;;;;18.34;56.27;97407.63;5053399;28;20532;-68
2021/06/13 03:57:46;;;;;;;14.47;6.33;;;;;;;18.31;55.80;97408.03;5053451;28;20178;-68
2021/06/13 04:00:14;;;;;;;10.73;6.33;;;;;;;18.14;55.54;97403.06;5050380;28;20190;-68
2021/06/13 04:02:45;;;;;;;7.93;5.90;;;;;;;18.40;54.42;97401.53;5029460;28;20433;-67
2021/06/13 04:05:13;;;;;;;16.40;5.83;;;;;;;18.48;54.23;97414.63;5053099;28;20519;-68
2021/06/13 04:07:40;;;;;;;11.30;5.77;;;;;;;18.42;54.49;97408.28;5052610;28;21168;-68
2021/06/13 04:10:06;;;;;;;8.87;5.20;;;;;;;18.47;53.76;97409.50;5053682;28;20456;-68
2021/06/13 04:12:32;;;;;;;8.00;5.63;;;;;;;18.28;54.14;97403.94;5053606;28;20816;-68
2021/06/13 04:14:59;;;;;;;9.53;5.87;;;;;;;18.31;54.02;97405.38;5051656;28;20286;-67
2021/06/13 04:17:26;;;;;;;8.20;5.40;;;;;;;18.42;53.87;97410.09;5035594;28;20414;-68
2021/06/13 04:19:52;;;;;;;13.20;5.93;;;;;;;18.07;54.54;97416.28;5050338;28;20441;-68
2021/06/13 04:22:19;;;;;;;10.70;5.50;;;;;;;18.12;54.35;97407.75;5049496;28;20483;-68
2021/06/13 04:24:50;;;;;;;9.53;4.83;;;;;;;18.34;54.11;97415.59;5052802;28;20499;-68
2021/06/13 04:27:21;;;;;;;12.30;5.70;;;;;;;18.41;53.71;97433.19;5052573;28;20941;-68
2021/06/13 04:29:46;;;;;;;9.20;5.60;;;;;;;18.44;53.21;97426.66;5052864;28;20417;-69
2021/06/13 04:32:12;;;;;;;10.73;5.77;;;;;;;18.62;52.95;97426.13;5028856;28;20537;-68
2021/06/13 04:34:39;;;;;;;5.87;5.10;;;;;;;18.39;53.41;97423.78;5052318;28;20203;-67
2021/06/13 04:37:06;;;;;;;9.27;5.80;;;;;;;18.45;53.19;97428.28;5051057;28;20186;-67
2021/06/13 04:39:32;;;;;;;11.03;5.90;;;;;;;18.25;53.87;97431.69;5051902;28;20422;-68
2021/06/13 04:41:57;;;;;;;9.30;5.60;;;;;;;18.32;53.66;97434.38;5052873;28;20421;-67
2021/06/13 04:44:23;;;;;;;16.00;5.63;;;;;;;18.49;53.15;97432.19;5051956;28;20203;-70
2021/06/13 04:46:49;;;;;;;9.00;5.47;;;;;;;18.22;53.79;97434.72;5052574;28;20183;-69
2021/06/13 04:49:14;;;;;;;13.23;5.37;;;;;;;18.21;53.66;97437.59;5052203;28;20591;-68
2021/06/13 04:51:43;;;;;;;8.60;5.00;;;;;;;17.92;54.55;97434.91;5052505;28;20260;-68
2021/06/13 04:54:22;;;;;;;12.43;5.03;;;;;;;18.43;52.52;97446.25;5052127;28;20207;-69
2021/06/13 04:57:25;;;;;;;10.00;5.27;;;;;;;18.58;52.59;97443.47;5050483;28;20847;-68
2021/06/13 04:59:50;;;;;;;6.53;4.70;;;;;;;18.58;52.47;97443.47;5043616;28;20496;-68
2021/06/13 05:02:16;;;;;;;8.30;5.17;;;;;;;18.53;52.39;97438.72;5028795;28;20880;-69
2021/06/13 05:04:42;;;;;;;11.40;5.63;;;;;;;18.42;53.10;97444.59;5052040;28;20232;-69
2021/06/13 05:07:08;;;;;;;11.40;6.17;;;;;;;18.54;52.84;97440.38;5052295;28;20183;-69
2021/06/13 05:09:33;;;;;;;12.63;5.87;;;;;;;18.68;52.28;97443.09;5052660;28;20186;-68
2021/06/13 05:11:59;;;;;;;10.57;5.67;;;;;;;18.65;52.63;97438.19;5050840;28;20681;-68
2021/06/13 05:14:24;;;;;;;8.37;5.30;;;;;;;18.47;53.02;97444.84;5034885;28;20210;-69
2021/06/13 05:16:50;;;;;;;10.40;5.50;;;;;;;18.52;52.33;97447.75;5051578;28;20187;-69
2021/06/13 05:19:16;;;;;;;13.10;5.57;;;;;;;18.79;52.17;97447.00;5053161;28;20183;-68
2021/06/13 05:21:41;;;;;;;7.67;5.53;;;;;;;19.25;51.33;97445.53;5036911;28;20282;-68
2021/06/13 05:24:07;;;;;;;9.10;5.17;;;;;;;19.26;50.95;97455.13;5047039;28;20213;-68
2021/06/13 05:26:33;;;;;;;7.70;5.03;;;;;;;19.56;49.82;97444.13;5051487;28;20229;-68
2021/06/13 05:28:59;;;;;;;5.90;4.87;;;;;;;19.91;49.10;97452.72;5051209;28;20210;-69
2021/06/13 05:31:25;;;;;;;8.73;5.17;;;;;;;19.36;50.27;97452.06;5031939;28;20203;-68
2021/06/13 05:33:51;;;;;;;5.90;4.80;;;;;;;19.02;50.37;97457.34;5049828;28;20245;-68
2021/06/13 05:36:16;;;;;;;8.60;4.93;;;;;;;19.52;49.86;97457.00;5050443;28;20274;-68
2021/06/13 05:38:44;;;;;;;6.57;4.20;;;;;;;19.79;49.23;97460.47;5044182;28;20673;-69
2021/06/13 05:41:10;;;;;;;6.93;4.70;;;;;;;19.58;49.14;97463.34;5047245;28;20674;-68
2021/06/13 05:43:36;;;;;;;6.90;5.33;;;;;;;19.60;49.27;97467.41;5051649;28;20429;-69
2021/06/13 05:46:03;;;;;;;7.20;4.43;;;;;;;19.22;49.69;97475.94;5051613;28;20507;-68
2021/06/13 05:48:29;;;;;;;7.40;4.70;;;;;;;19.36;49.54;97460.88;5051485;28;20956;-68
2021/06/13 05:50:54;;;;;;;7.90;4.67;;;;;;;19.47;49.09;97468.25;5051205;28;20449;-69
2021/06/13 05:53:20;;;;;;;7.20;4.40;;;;;;;19.97;48.09;97469.69;5049428;28;20426;-68
2021/06/13 05:55:46;;;;;;;13.57;4.70;;;;;;;19.83;48.20;97474.19;5051022;28;20203;-69
2021/06/13 05:58:11;;;;;;;9.00;4.30;;;;;;;19.68;48.71;97479.69;5051536;28;20187;-69
2021/06/13 06:00:38;;;;;;;4.67;3.90;;;;;;;19.99;48.43;97478.31;5051876;28;20656;-67
2021/06/13 06:03:04;;;;;;;6.03;4.27;;;;;;;19.77;48.35;97481.16;5051196;28;20187;-69
2021/06/13 06:05:30;;;;;;;9.00;4.00;;;;;;;20.80;45.99;97480.78;5051001;28;20495;-69
2021/06/13 06:07:56;;;;;;;11.83;4.50;;;;;;;20.97;45.30;97479.28;5051243;28;20417;-68
2021/06/13 06:10:24;;;;;;;12.50;4.30;;;;;;;20.22;46.79;97479.69;5042465;28;20425;-67
2021/06/13 06:12:50;;;;;;;8.97;3.83;;;;;;;20.75;45.34;97477.94;5049140;28;20429;-68
2021/06/13 06:15:19;;;;;;;10.53;4.83;;;;;;;19.90;47.45;97483.00;5050181;28;20450;-68
2021/06/13 06:17:46;;;;;;;5.60;4.03;;;;;;;20.12;47.06;97489.94;5051186;28;20313;-68
2021/06/13 06:20:13;;;;;;;9.33;4.10;;;;;;;19.88;46.98;97481.59;5050931;28;20440;-68
2021/06/13 06:22:38;;;;;;;5.00;3.70;;;;;;;20.19;46.57;97485.41;5047121;28;20905;-68
2021/06/13 06:25:08;;;;;;;7.67;3.80;;;;;;;20.45;46.28;97489.06;5050576;28;20456;-68
2021/06/13 06:27:34;;;;;;;7.10;3.57;;;;;;;21.20;44.92;97485.09;5050787;28;20193;-68
2021/06/13 06:30:00;;;;;;;6.20;3.60;;;;;;;21.15;44.37;97488.41;5049776;28;21008;-68
2021/06/13 06:32:26;;;;;;;7.60;4.90;;;;;;;21.38;44.21;97492.38;5049341;28;20211;-68
2021/06/13 06:34:51;;;;;;;8.40;5.47;;;;;;;21.89;42.70;97498.59;5050848;28;20788;-68
2021/06/13 06:37:17;;;;;;;6.30;3.97;;;;;;;21.12;43.16;97504.81;5048326;28;20602;-68
2021/06/13 06:39:42;;;;;;;6.50;4.00;;;;;;;21.32;43.16;97510.84;5036658;28;20202;-68
2021/06/13 06:42:08;;;;;;;4.83;3.50;;;;;;;21.75;42.94;97504.03;5050823;28;20261;-68
2021/06/13 06:44:34;;;;;;;6.83;3.47;;;;;;;20.94;44.28;97514.31;5050790;28;20198;-69
2021/06/13 06:47:02;;;;;;;6.90;4.37;;;;;;;21.03;44.33;97501.56;5050187;28;20183;-69
2021/06/13 06:49:29;;;;;;;4.20;3.43;;;;;;;21.52;43.22;97507.25;5049085;28;20186;-68
2021/06/13 06:51:55;;;;;;;8.30;3.73;;;;;;;21.88;42.68;97503.13;5049973;28;20469;-69
2021/06/13 06:54:21;;;;;;;6.67;4.13;;;;;;;22.24;41.80;97508.78;5049871;28;20995;-68
2021/06/13 06:56:46;;;;;;;11.40;4.50;;;;;;;22.75;41.11;97512.16;5050709;28;20456;-68
2021/06/13 06:59:12;;;;;;;9.37;4.17;;;;;;;21.21;43.25;97516.84;5050483;28;20183;-69
2021/06/13 07:01:38;;;;;;;6.77;3.77;;;;;;;21.74;42.48;97529.06;5050510;28;20179;-68
2021/06/13 07:04:03;;;;;;;6.93;5.20;;;;;;;22.76;40.42;97524.47;5050259;28;20218;-68
2021/06/13 07:06:29;;;;;;;7.87;4.20;;;;;;;22.77;40.27;97525.28;5050260;28;20179;-69
2021/06/13 07:08:54;;;;;;;8.00;3.40;;;;;;;22.35;40.83;97529.41;5042432;28;20230;-67
2021/06/13 07:11:20;;;;;;;9.40;5.17;;;;;;;22.56;40.54;97535.38;5048247;28;20290;-69
2021/06/13 07:13:46;;;;;;;8.97;5.40;;;;;;;22.67;41.07;97542.66;5050457;28;20183;-68
2021/06/13 07:16:11;;;;;;;8.87;4.50;;;;;;;22.86;40.76;97545.34;5050502;28;20197;-69
2021/06/13 07:18:37;;;;;;;18.63;9.30;;;;;;;23.02;40.20;97538.56;5050873;28;20183;-68
2021/06/13 07:21:03;;;;;;;6.60;3.57;;;;;;;23.38;39.54;97536.88;5045483;28;20191;-68
2021/06/13 07:23:29;;;;;;;8.63;3.63;;;;;;;22.70;40.99;97546.72;5050388;28;20526;-67
2021/06/13 07:25:54;;;;;;;5.20;3.37;;;;;;;22.30;42.01;97547.13;5049839;28;20959;-67
2021/06/13 07:28:20;;;;;;;10.50;5.03;;;;;;;22.89;41.06;97536.03;5027384;28;20179;-68
2021/06/13 07:30:46;;;;;;;5.87;3.90;;;;;;;22.67;40.85;97544.50;5050423;28;20230;-68
2021/06/13 07:33:11;;;;;;;6.60;4.07;;;;;;;21.80;42.44;97540.72;5034759;28;20271;-69
2021/06/13 07:35:37;;;;;;;6.57;4.10;;;;;;;22.42;40.93;97533.88;5051157;28;20205;-67
2021/06/13 07:38:03;;;;;;;6.53;4.00;;;;;;;22.17;42.22;97542.69;5050137;28;20646;-69
2021/06/13 07:40:30;;;;;;;9.70;4.40;;;;;;;22.18;41.67;97539.78;5042221;28;20714;-68
2021/06/13 07:42:57;;;;;;;6.57;3.80;;;;;;;22.28;41.79;97543.84;5041543;28;20179;-67
2021/06/13 07:45:23;;;;;;;8.20;4.47;;;;;;;22.00;42.19;97548.56;5049604;28;20441;-68
2021/06/13 07:47:49;;;;;;;12.47;5.30;;;;;;;22.14;42.00;97543.97;5050316;28;20422;-68
2021/06/13 07:50:16;;;;;;;6.30;3.97;;;;;;;21.49;43.86;97561.00;5049090;28;20418;-68
2021/06/13 07:52:44;;;;;;;7.73;4.03;;;;;;;21.57;43.75;97560.75;5052762;28;20202;-68
2021/06/13 07:55:11;;;;;;;6.33;4.10;;;;;;;21.34;43.62;97566.63;5052315;28;20464;-68
2021/06/13 07:57:38;;;;;;;6.83;4.03;;;;;;;22.52;41.51;97567.06;5048794;28;20564;-68
2021/06/13 08:00:05;;;;;;;9.83;4.20;;;;;;;23.28;39.30;97564.16;5050731;28;20426;-68
2021/06/13 08:02:30;;;;;;;5.00;3.67;;;;;;;23.73;38.58;97552.22;5035080;28;21099;-68
2021/06/13 08:05:00;;;;;;;7.43;4.00;;;;;;;23.45;39.34;97561.66;5043633;28;20452;-68
2021/06/13 08:07:25;;;;;;;7.07;3.80;;;;;;;22.64;40.72;97569.00;5028124;28;20183;-68
2021/06/13 08:09:51;;;;;;;9.60;4.00;;;;;;;22.81;40.61;97558.53;5043150;28;20811;-69
2021/06/13 08:12:18;;;;;;;7.23;4.00;;;;;;;22.48;41.08;97557.84;5053969;28;20576;-67
2021/06/13 08:14:43;;;;;;;7.50;3.93;;;;;;;22.99;40.02;97550.53;5053784;28;20202;-68
2021/06/13 08:17:09;;;;;;;6.27;3.63;;;;;;;23.17;40.39;97552.34;5054088;28;20440;-68
2021/06/13 08:19:35;;;;;;;6.03;4.30;;;;;;;22.43;41.36;97556.88;5054802;28;20576;-68
2021/06/13 08:22:00;;;;;;;9.00;4.10;;;;;;;21.79;42.29;97569.25;5043601;28;20194;-69
2021/06/13 08:24:26;;;;;;;13.50;4.10;;;;;;;21.89;41.53;97558.13;5056560;28;20318;-69
2021/06/13 08:26:51;;;;;;;4.67;3.40;;;;;;;22.67;41.07;97557.88;5057812;28;20187;-68
2021/06/13 08:29:17;;;;;;;7.50;3.80;;;;;;;22.29;41.13;97554.28;5056254;28;20187;-69
2021/06/13 08:31:43;;;;;;;5.20;3.77;;;;;;;22.40;40.97;97547.41;5046436;28;20210;-67
2021/06/13 08:34:08;;;;;;;5.53;3.40;;;;;;;23.10;39.06;97550.81;5051763;28;20246;-68
2021/06/13 08:36:34;;;;;;;6.50;4.30;;;;;;;22.72;40.44;97551.84;5048541;28;20187;-68
2021/06/13 08:39:00;;;;;;;8.33;3.90;;;;;;;22.42;41.09;97556.06;5043986;28;20538;-68
2021/06/13 08:41:26;;;;;;;5.53;4.00;;;;;;;22.12;41.83;97566.53;5054103;28;20183;-68
2021/06/13 08:43:52;;;;;;;8.07;3.97;;;;;;;23.20;39.44;97558.28;5045698;28;20244;-68
2021/06/13 08:46:21;;;;;;;4.87;3.33;;;;;;;23.39;39.24;97551.88;5052865;28;20440;-68
2021/06/13 08:48:47;;;;;;;7.00;4.40;;;;;;;23.50;38.92;97549.47;5053805;28;20433;-68
2021/06/13 08:51:13;;;;;;;4.70;3.30;;;;;;;23.85;38.28;97554.09;5052674;28;20453;-67
2021/06/13 08:53:44;;;;;;;7.03;3.80;;;;;;;24.21;37.90;97546.97;5040680;28;20605;-67
2021/06/13 08:56:11;;;;;;;11.77;3.60;;;;;;;24.62;36.99;97553.25;5050222;28;20471;-68
2021/06/13 08:58:37;;;;;;;6.27;3.37;;;;;;;24.77;36.86;97552.78;5046792;28;20763;-68
2021/06/13 09:01:02;;;;;;;5.97;3.17;;;;;;;24.43;37.61;97557.13;5052270;28;20426;-69
2021/06/13 09:03:28;;;;;;;5.00;3.40;;;;;;;24.21;38.13;97549.63;5029868;28;20180;-67
2021/06/13 09:05:53;;;;;;;7.73;3.57;;;;;;;24.28;37.32;97561.06;5049716;28;20203;-68
2021/06/13 09:08:19;;;;;;;5.50;3.40;;;;;;;24.10;37.35;97558.47;5051294;28;20183;-68
2021/06/13 09:10:46;;;;;;;7.33;3.50;;;;;;;23.85;38.18;97559.47;5038238;28;20238;-69
2021/06/13 09:13:16;;;;;;;8.17;3.77;;;;;;;23.43;38.76;97563.78;5050765;28;20183;-67
2021/06/13 09:15:43;;;;;;;5.40;2.90;;;;;;;24.55;36.55;97549.88;5052239;28;20518;-68
2021/06/13 09:18:30;;;;;;;5.90;3.00;;;;;;;24.79;36.28;97555.25;5050697;28;20491;-69
2021/06/13 09:20:57;;;;;;;5.07;3.33;;;;;;;23.92;38.31;97558.31;5047831;28;20458;-68
2021/06/13 09:23:23;;;;;;;5.90;3.30;;;;;;;24.02;38.29;97556.94;5051647;28;20459;-68
2021/06/13 09:25:59;;;;;;;9.63;3.50;;;;;;;23.16;39.11;97561.41;5052436;28;20445;-67
2021/06/13 09:28:26;;;;;;;19.17;4.07;;;;;;;23.82;37.99;97563.41;5052148;28;20201;-67
2021/06/13 09:30:53;;;;;;;10.13;3.50;;;;;;;24.55;36.41;97560.59;5052039;28;20496;-68
2021/06/13 09:33:19;;;;;;;7.70;3.40;;;;;;;24.20;36.11;97553.38;5033276;28;20433;-68
2021/06/13 09:35:47;;;;;;;10.93;3.40;;;;;;;24.47;36.15;97552.91;5051255;28;20791;-68
2021/06/13 09:38:15;;;;;;;7.00;3.20;;;;;;;23.55;37.98;97561.13;5042535;28;20453;-68
2021/06/13 09:40:44;;;;;;;5.47;3.17;;;;;;;24.60;35.69;97560.69;5041762;28;20513;-68
2021/06/13 09:43:15;;;;;;;4.40;3.70;;;;;;;23.77;37.49;97563.28;5051722;28;20532;-68
2021/06/13 09:45:49;;;;;;;8.30;3.10;;;;;;;24.63;36.29;97562.13;5052090;28;20450;-68
2021/06/13 09:48:15;;;;;;;4.00;2.93;;;;;;;25.64;34.63;97568.16;5041364;28;20785;-67
2021/06/13 09:50:47;;;;;;;4.83;3.83;;;;;;;25.05;35.54;97566.50;5044781;28;20664;-68
2021/06/13 09:53:47;;;;;;;7.00;3.40;;;;;;;23.85;38.11;97562.97;5050757;28;20422;-67
2021/06/13 09:56:27;;;;;;;5.50;3.33;;;;;;;24.59;36.67;97567.09;5052412;28;20433;-68
2021/06/13 09:59:09;;;;;;;5.43;3.17;;;;;;;24.18;37.27;97568.88;5051901;28;20494;-67
2021/06/13 10:01:38;;;;;;;7.30;3.60;;;;;;;24.14;37.35;97581.06;5039479;28;20425;-68
2021/06/13 10:04:14;;;;;;;5.17;3.30;;;;;;;25.06;35.84;97566.25;5051259;28;20445;-68
2021/06/13 10:06:40;;;;;;;7.10;4.13;;;;;;;25.77;33.78;97565.97;5052711;28;20803;-67
2021/06/13 10:09:07;;;;;;;4.00;2.73;;;;;;;24.82;35.02;97562.81;5044675;28;20420;-67
2021/06/13 10:11:36;;;;;;;5.30;3.13;;;;;;;24.38;35.31;97561.31;5050778;28;20207;-68
2021/06/13 10:14:05;;;;;;;7.10;2.77;;;;;;;23.87;35.58;97568.06;5051035;28;20441;-67
2021/06/13 10:16:39;;;;;;;5.60;2.70;;;;;;;24.44;35.42;97570.25;5044509;28;20512;-67
2021/06/13 10:19:06;;;;;;;6.50;3.27;;;;;;;24.81;35.68;97571.91;5051919;28;20476;-68
2021/06/13 10:21:35;;;;;;;6.07;3.40;;;;;;;24.60;36.43;97578.66;5050304;28;20433;-67
2021/06/13 10:24:04;;;;;;;6.37;3.00;;;;;;;25.10;35.54;97582.66;5046010;28;20487;-66
2021/06/13 10:26:30;;;;;;;5.57;2.87;;;;;;;24.59;35.50;97577.81;5044964;28;20432;-69
2021/06/13 10:28:56;;;;;;;5.13;2.60;;;;;;;24.50;34.51;97569.34;5051551;28;20430;-67
2021/06/13 10:31:22;;;;;;;3.50;3.10;;;;;;;24.07;35.33;97576.63;5052985;28;20290;-67
2021/06/13 10:33:49;;;;;;;6.27;2.53;;;;;;;24.49;33.05;97569.56;5034639;28;20225;-67
2021/06/13 10:36:15;;;;;;;4.70;3.10;;;;;;;24.07;35.48;97575.81;5051543;28;20995;-67
2021/06/13 10:38:41;;;;;;;6.27;2.70;;;;;;;25.20;32.48;97564.13;5046724;28;20455;-68
2021/06/13 10:41:07;;;;;;;7.13;2.43;;;;;;;24.83;32.09;97567.09;5039176;28;20433;-67
2021/06/13 10:43:33;;;;;;;4.63;2.50;;;;;;;25.10;32.29;97567.41;5050717;28;20452;-67
2021/06/13 10:46:17;;;;;;;4.90;2.50;;;;;;;24.66;32.90;97570.50;5052034;28;20252;-69
2021/06/13 10:48:49;;;;;;;6.90;2.50;;;;;;;24.32;34.10;97572.94;5022322;28;20505;-68
2021/06/13 10:51:35;;;;;;;7.67;2.80;;;;;;;24.49;34.43;97566.88;5049622;28;20457;-68
2021/06/13 10:54:31;;;;;;;5.43;3.23;;;;;;;24.22;36.18;97556.63;5049812;28;20492;-68
2021/06/13 10:57:19;;;;;;;5.93;3.20;;;;;;;25.57;34.35;97557.56;5051687;28;20440;-68
2021/06/13 10:59:47;;;;;;;4.10;2.70;;;;;;;24.47;35.17;97558.25;5051122;28;20437;-68
2021/06/13 11:02:19;;;;;;;4.87;2.40;;;;;;;25.55;32.94;97555.16;5043494;28;20426;-68
2021/06/13 11:05:01;;;;;;;7.20;2.20;;;;;;;24.22;34.84;97551.28;5052022;28;20563;-67
2021/06/13 11:07:29;;;;;;;3.93;2.50;;;;;;;24.75;33.17;97554.91;5051270;28;20436;-67
2021/06/13 11:10:25;;;;;;;9.30;2.60;;;;;;;25.46;31.81;97559.25;5043691;28;20831;-67
2021/06/13 11:12:52;;;;;;;4.43;2.63;;;;;;;26.56;30.83;97551.91;5041594;28;20434;-67
2021/06/13 11:15:39;;;;;;;4.83;2.77;;;;;;;27.43;28.83;97546.78;5049266;28;20477;-67
2021/06/13 11:18:07;;;;;;;5.50;2.13;;;;;;;26.67;30.41;97551.00;5049475;28;20910;-67
2021/06/13 11:23:27;;;;;;;7.40;2.43;;;;;;;26.37;29.54;97546.81;5036272;28;20448;-68
2021/06/13 11:25:54;;;;;;;7.93;2.50;;;;;;;26.25;30.99;97559.53;5026965;28;20526;-67
2021/06/13 11:28:33;;;;;;;4.20;2.00;;;;;;;26.60;30.19;97545.81;5052937;28;20194;-68
2021/06/13 11:31:08;;;;;;;3.80;2.70;;;;;;;25.82;31.53;97562.59;5050176;28;20461;-69
2021/06/13 11:33:40;;;;;;;5.53;2.23;;;;;;;26.36;30.87;97539.81;5040054;28;20835;-70
2021/06/13 11:36:15;;;;;;;3.30;2.40;;;;;;;26.73;30.71;97546.50;5054412;28;20476;-69
2021/06/13 11:38:44;;;;;;;4.33;2.23;;;;;;;26.20;29.19;97539.59;5051002;28;20480;-68